AEE317 LDZA-LCPH
Flight info
| Callsign | AEE317 |
|---|---|
| Flight time | 2h 23m |
| Altitude | 33000 |
| Route | TEBLI DCT NEPSI DCT AKIKA DCT ENFAR DCT TALAS/N0457F350 UN130 MES UL609 RDS/N0404F230 M601 DASNI W195 TOBAL |
| Aircraft | A321/M-SDE3FGHIRWY/LB1 |
Departure
| Time | 2026-04-23 10:04 |
|---|---|
| Airport | Zagreb Franjo Tuđman International Airport (LDZA) |
Arrival
| Time | 2026-04-23 12:27 |
|---|---|
| Airport | Paphos International Airport (LCPH) |
| Time | Latitude | Longitude | Altitude | Speed | Heading |
|---|---|---|---|---|---|
| 2026-04-23 09:30 | 45.74207 | 16.07875 | 359 ft | 0 kts | 136° |
| 2026-04-23 09:53 | 45.74211 | 16.07870 | 366 ft | 4 kts | 136° |
| 2026-04-23 09:54 | 45.74231 | 16.07843 | 358 ft | 4 kts | 136° |
| 2026-04-23 09:54 | 45.74249 | 16.07819 | 363 ft | 2 kts | 136° |
| 2026-04-23 09:54 | 45.74266 | 16.07799 | 359 ft | 4 kts | 167° |
| 2026-04-23 09:54 | 45.74283 | 16.07806 | 359 ft | 4 kts | 226° |
| 2026-04-23 09:55 | 45.74292 | 16.07819 | 359 ft | 0 kts | 226° |
| 2026-04-23 09:57 | 45.74287 | 16.07811 | 367 ft | 3 kts | 226° |
| 2026-04-23 09:58 | 45.74258 | 16.07767 | 359 ft | 9 kts | 226° |
| 2026-04-23 09:58 | 45.74201 | 16.07682 | 366 ft | 15 kts | 226° |
| 2026-04-23 09:58 | 45.74122 | 16.07562 | 359 ft | 17 kts | 227° |
| 2026-04-23 09:58 | 45.74064 | 16.07453 | 360 ft | 12 kts | 259° |
| 2026-04-23 09:59 | 45.74115 | 16.07341 | 365 ft | 15 kts | 316° |
| 2026-04-23 09:59 | 45.74195 | 16.07235 | 362 ft | 15 kts | 316° |
| 2026-04-23 09:59 | 45.74187 | 16.07110 | 366 ft | 15 kts | 227° |
| 2026-04-23 09:59 | 45.74108 | 16.06990 | 367 ft | 18 kts | 227° |
| 2026-04-23 10:00 | 45.74020 | 16.06856 | 361 ft | 19 kts | 226° |
| 2026-04-23 10:00 | 45.73916 | 16.06699 | 363 ft | 25 kts | 227° |
| 2026-04-23 10:00 | 45.73783 | 16.06497 | 359 ft | 29 kts | 227° |
| 2026-04-23 10:00 | 45.73645 | 16.06287 | 359 ft | 29 kts | 227° |
| 2026-04-23 10:01 | 45.73508 | 16.06078 | 359 ft | 29 kts | 226° |
| 2026-04-23 10:01 | 45.73372 | 16.05870 | 359 ft | 29 kts | 226° |
| 2026-04-23 10:01 | 45.73246 | 16.05679 | 359 ft | 21 kts | 226° |
| 2026-04-23 10:01 | 45.73154 | 16.05540 | 367 ft | 17 kts | 226° |
| 2026-04-23 10:02 | 45.73107 | 16.05453 | 365 ft | 14 kts | 243° |
| 2026-04-23 10:02 | 45.73115 | 16.05321 | 363 ft | 14 kts | 302° |
| 2026-04-23 10:02 | 45.73193 | 16.05244 | 366 ft | 14 kts | 354° |
| 2026-04-23 10:02 | 45.73251 | 16.05293 | 362 ft | 0 kts | 46° |
| 2026-04-23 10:03 | 45.73256 | 16.05300 | 362 ft | 9 kts | 46° |
| 2026-04-23 10:03 | 45.73471 | 16.05625 | 366 ft | 80 kts | 47° |
| 2026-04-23 10:03 | 45.73999 | 16.06423 | 363 ft | 139 kts | 46° |
| 2026-04-23 10:03 | 45.74777 | 16.07610 | 427 ft | 179 kts | 46° |
| 2026-04-23 10:04 | 45.75490 | 16.09016 | 1174 ft | 175 kts | 62° |
| 2026-04-23 10:04 | 45.75890 | 16.10663 | 1948 ft | 175 kts | 75° |
| 2026-04-23 10:04 | 45.76024 | 16.12417 | 2473 ft | 183 kts | 91° |
| 2026-04-23 10:04 | 45.75851 | 16.14330 | 2679 ft | 205 kts | 103° |
| 2026-04-23 10:05 | 45.75500 | 16.16405 | 3056 ft | 221 kts | 99° |
| 2026-04-23 10:05 | 45.75147 | 16.18639 | 3271 ft | 240 kts | 97° |
| 2026-04-23 10:05 | 45.74797 | 16.21020 | 3782 ft | 246 kts | 97° |
| 2026-04-23 10:05 | 45.74444 | 16.23430 | 4430 ft | 249 kts | 97° |
| 2026-04-23 10:06 | 45.74086 | 16.25859 | 5118 ft | 251 kts | 97° |
| 2026-04-23 10:06 | 45.73719 | 16.28317 | 5777 ft | 254 kts | 97° |
| 2026-04-23 10:06 | 45.73108 | 16.30711 | 6438 ft | 263 kts | 119° |
| 2026-04-23 10:06 | 45.71874 | 16.32699 | 6924 ft | 272 kts | 134° |
| 2026-04-23 10:07 | 45.70488 | 16.34546 | 6992 ft | 271 kts | 134° |
| 2026-04-23 10:07 | 45.69102 | 16.36365 | 7015 ft | 271 kts | 134° |
| 2026-04-23 10:07 | 45.67711 | 16.38179 | 7015 ft | 271 kts | 136° |
| 2026-04-23 10:07 | 45.66134 | 16.39680 | 7014 ft | 279 kts | 153° |
| 2026-04-23 10:08 | 45.64285 | 16.40797 | 7345 ft | 294 kts | 156° |
| 2026-04-23 10:08 | 45.62392 | 16.41940 | 7928 ft | 298 kts | 155° |
| 2026-04-23 10:08 | 45.60474 | 16.43115 | 8541 ft | 301 kts | 155° |
| 2026-04-23 10:09 | 45.56590 | 16.45493 | 9764 ft | 306 kts | 155° |
| 2026-04-23 10:09 | 45.54617 | 16.46698 | 10347 ft | 310 kts | 154° |
| 2026-04-23 10:09 | 45.52577 | 16.47948 | 10534 ft | 330 kts | 154° |
| 2026-04-23 10:09 | 45.50412 | 16.49275 | 10661 ft | 348 kts | 154° |
| 2026-04-23 10:10 | 45.48099 | 16.50694 | 10801 ft | 366 kts | 154° |
| 2026-04-23 10:10 | 45.45712 | 16.52156 | 10926 ft | 382 kts | 154° |
| 2026-04-23 10:10 | 45.43231 | 16.53665 | 11246 ft | 392 kts | 154° |
| 2026-04-23 10:10 | 45.40713 | 16.55189 | 11733 ft | 394 kts | 154° |
| 2026-04-23 10:11 | 45.38180 | 16.56722 | 12231 ft | 397 kts | 154° |
| 2026-04-23 10:11 | 45.35631 | 16.58260 | 12735 ft | 399 kts | 154° |
| 2026-04-23 10:11 | 45.33066 | 16.59811 | 13243 ft | 402 kts | 154° |
| 2026-04-23 10:11 | 45.30490 | 16.61371 | 13736 ft | 404 kts | 153° |
| 2026-04-23 10:12 | 45.27884 | 16.62942 | 14237 ft | 408 kts | 154° |
| 2026-04-23 10:12 | 45.25264 | 16.64519 | 14729 ft | 410 kts | 153° |
| 2026-04-23 10:12 | 45.22635 | 16.66100 | 15187 ft | 412 kts | 153° |
| 2026-04-23 10:12 | 45.20075 | 16.67920 | 15619 ft | 411 kts | 144° |
| 2026-04-23 10:13 | 45.17761 | 16.70277 | 16044 ft | 410 kts | 137° |
| 2026-04-23 10:13 | 45.15540 | 16.72825 | 16485 ft | 411 kts | 136° |
| 2026-04-23 10:13 | 45.13308 | 16.75382 | 16907 ft | 414 kts | 136° |
| 2026-04-23 10:13 | 45.11061 | 16.77946 | 17313 ft | 416 kts | 137° |
| 2026-04-23 10:14 | 45.08796 | 16.80520 | 17712 ft | 419 kts | 137° |
| 2026-04-23 10:14 | 45.06514 | 16.83103 | 18104 ft | 421 kts | 137° |
| 2026-04-23 10:14 | 45.04228 | 16.85692 | 18492 ft | 423 kts | 137° |
| 2026-04-23 10:14 | 45.01926 | 16.88294 | 18871 ft | 425 kts | 136° |
| 2026-04-23 10:15 | 44.99612 | 16.90905 | 19255 ft | 426 kts | 137° |
| 2026-04-23 10:15 | 44.97288 | 16.93524 | 19637 ft | 428 kts | 136° |
| 2026-04-23 10:15 | 44.94956 | 16.96148 | 20002 ft | 430 kts | 136° |
| 2026-04-23 10:15 | 44.92613 | 16.98788 | 20373 ft | 432 kts | 136° |
| 2026-04-23 10:16 | 44.90260 | 17.01443 | 20761 ft | 434 kts | 136° |
| 2026-04-23 10:16 | 44.87898 | 17.04106 | 21123 ft | 435 kts | 136° |
| 2026-04-23 10:16 | 44.85525 | 17.06774 | 21469 ft | 437 kts | 136° |
| 2026-04-23 10:16 | 44.83145 | 17.09444 | 21827 ft | 439 kts | 136° |
| 2026-04-23 10:17 | 44.80748 | 17.12127 | 22160 ft | 440 kts | 136° |
| 2026-04-23 10:17 | 44.78349 | 17.14809 | 22485 ft | 442 kts | 136° |
| 2026-04-23 10:17 | 44.75930 | 17.17508 | 22817 ft | 444 kts | 136° |
| 2026-04-23 10:17 | 44.73504 | 17.20216 | 23132 ft | 446 kts | 136° |
| 2026-04-23 10:18 | 44.71069 | 17.22931 | 23456 ft | 447 kts | 136° |
| 2026-04-23 10:18 | 44.68596 | 17.25687 | 23745 ft | 449 kts | 136° |
| 2026-04-23 10:18 | 44.66141 | 17.28419 | 24038 ft | 451 kts | 136° |
| 2026-04-23 10:18 | 44.63681 | 17.31150 | 24320 ft | 452 kts | 136° |
| 2026-04-23 10:19 | 44.61206 | 17.33896 | 24626 ft | 454 kts | 136° |
| 2026-04-23 10:19 | 44.58725 | 17.36651 | 24934 ft | 455 kts | 136° |
| 2026-04-23 10:19 | 44.56239 | 17.39415 | 25237 ft | 457 kts | 136° |
| 2026-04-23 10:19 | 44.53743 | 17.42185 | 25527 ft | 458 kts | 136° |
| 2026-04-23 10:20 | 44.51245 | 17.44947 | 25824 ft | 459 kts | 136° |
| 2026-04-23 10:20 | 44.48734 | 17.47717 | 26084 ft | 460 kts | 136° |
| 2026-04-23 10:20 | 44.46218 | 17.50486 | 26338 ft | 460 kts | 136° |
| 2026-04-23 10:20 | 44.43697 | 17.53260 | 26580 ft | 461 kts | 136° |
| 2026-04-23 10:21 | 44.41180 | 17.56028 | 26872 ft | 461 kts | 136° |
| 2026-04-23 10:21 | 44.38666 | 17.58791 | 27173 ft | 459 kts | 135° |
| 2026-04-23 10:21 | 44.36158 | 17.61546 | 27474 ft | 457 kts | 135° |
| 2026-04-23 10:21 | 44.33665 | 17.64284 | 27778 ft | 455 kts | 135° |
| 2026-04-23 10:22 | 44.31177 | 17.67010 | 28083 ft | 454 kts | 135° |
| 2026-04-23 10:22 | 44.28698 | 17.69722 | 28404 ft | 452 kts | 135° |
| 2026-04-23 10:22 | 44.26227 | 17.72423 | 28713 ft | 450 kts | 135° |
| 2026-04-23 10:22 | 44.23765 | 17.75109 | 29012 ft | 449 kts | 135° |
| 2026-04-23 10:23 | 44.21308 | 17.77787 | 29290 ft | 448 kts | 134° |
| 2026-04-23 10:23 | 44.18858 | 17.80455 | 29524 ft | 446 kts | 135° |
| 2026-04-23 10:23 | 44.16414 | 17.83117 | 29796 ft | 445 kts | 134° |
| 2026-04-23 10:23 | 44.13980 | 17.85766 | 30073 ft | 443 kts | 134° |
| 2026-04-23 10:24 | 44.11558 | 17.88398 | 30353 ft | 442 kts | 134° |
| 2026-04-23 10:24 | 44.09134 | 17.91027 | 30602 ft | 441 kts | 134° |
| 2026-04-23 10:24 | 44.06721 | 17.93638 | 30858 ft | 440 kts | 134° |
| 2026-04-23 10:24 | 44.04306 | 17.96248 | 31107 ft | 439 kts | 135° |
| 2026-04-23 10:25 | 44.01897 | 17.98853 | 31350 ft | 438 kts | 134° |
| 2026-04-23 10:25 | 43.99465 | 18.01486 | 31602 ft | 437 kts | 134° |
| 2026-04-23 10:25 | 43.97100 | 18.04045 | 31829 ft | 436 kts | 134° |
| 2026-04-23 10:25 | 43.94675 | 18.06663 | 32060 ft | 436 kts | 135° |
| 2026-04-23 10:26 | 43.92283 | 18.09240 | 32288 ft | 435 kts | 135° |
| 2026-04-23 10:26 | 43.89894 | 18.11812 | 32504 ft | 435 kts | 135° |
| 2026-04-23 10:26 | 43.87509 | 18.14377 | 32736 ft | 434 kts | 135° |
| 2026-04-23 10:26 | 43.85123 | 18.16939 | 32942 ft | 433 kts | 135° |
| 2026-04-23 10:27 | 43.82738 | 18.19495 | 33126 ft | 433 kts | 135° |
| 2026-04-23 10:27 | 43.80350 | 18.22053 | 33190 ft | 436 kts | 135° |
| 2026-04-23 10:27 | 43.75520 | 18.27231 | 33192 ft | 442 kts | 135° |
| 2026-04-23 10:28 | 43.70639 | 18.32441 | 33191 ft | 444 kts | 135° |
| 2026-04-23 10:28 | 43.65740 | 18.37651 | 33191 ft | 445 kts | 135° |
| 2026-04-23 10:29 | 43.60835 | 18.42859 | 33185 ft | 445 kts | 136° |
| 2026-04-23 10:29 | 43.55910 | 18.48069 | 33188 ft | 447 kts | 136° |
| 2026-04-23 10:30 | 43.50972 | 18.53290 | 33183 ft | 448 kts | 136° |
| 2026-04-23 10:30 | 43.46025 | 18.58522 | 33171 ft | 449 kts | 136° |
| 2026-04-23 10:31 | 43.41057 | 18.63770 | 33179 ft | 451 kts | 136° |
| 2026-04-23 10:31 | 43.36065 | 18.69023 | 33169 ft | 452 kts | 137° |
| 2026-04-23 10:32 | 43.31066 | 18.74262 | 33182 ft | 452 kts | 137° |
| 2026-04-23 10:32 | 43.26094 | 18.79568 | 33168 ft | 452 kts | 135° |
| 2026-04-23 10:33 | 43.21211 | 18.85111 | 33169 ft | 453 kts | 134° |
| 2026-04-23 10:33 | 43.16380 | 18.90657 | 33151 ft | 454 kts | 135° |
| 2026-04-23 10:34 | 43.12323 | 18.95236 | 33148 ft | 455 kts | 135° |
| 2026-04-23 10:34 | 43.07412 | 19.00716 | 33148 ft | 456 kts | 136° |
| 2026-04-23 10:35 | 43.02490 | 19.06202 | 33144 ft | 457 kts | 136° |
| 2026-04-23 10:35 | 42.97563 | 19.11695 | 33138 ft | 458 kts | 136° |
| 2026-04-23 10:36 | 42.92626 | 19.17195 | 33142 ft | 459 kts | 136° |
| 2026-04-23 10:36 | 42.87674 | 19.22689 | 33137 ft | 459 kts | 136° |
| 2026-04-23 10:37 | 42.82713 | 19.28188 | 33133 ft | 460 kts | 136° |
| 2026-04-23 10:37 | 42.77739 | 19.33684 | 33135 ft | 461 kts | 136° |
| 2026-04-23 10:38 | 42.72751 | 19.39180 | 33130 ft | 462 kts | 137° |
| 2026-04-23 10:38 | 42.67724 | 19.44722 | 33128 ft | 463 kts | 137° |
| 2026-04-23 10:39 | 42.62713 | 19.50223 | 33123 ft | 464 kts | 137° |
| 2026-04-23 10:39 | 42.57683 | 19.55720 | 33122 ft | 465 kts | 137° |
| 2026-04-23 10:40 | 42.52652 | 19.61241 | 33121 ft | 465 kts | 136° |
| 2026-04-23 10:40 | 42.47807 | 19.67038 | 33119 ft | 464 kts | 134° |
| 2026-04-23 10:41 | 42.43091 | 19.73038 | 33117 ft | 465 kts | 133° |
| 2026-04-23 10:41 | 42.38345 | 19.79006 | 33112 ft | 466 kts | 134° |
| 2026-04-23 10:42 | 42.33535 | 19.84907 | 33110 ft | 467 kts | 135° |
| 2026-04-23 10:42 | 42.28692 | 19.90795 | 33110 ft | 469 kts | 135° |
| 2026-04-23 10:43 | 42.23847 | 19.96697 | 33117 ft | 470 kts | 135° |
| 2026-04-23 10:43 | 42.18997 | 20.02609 | 33115 ft | 470 kts | 135° |
| 2026-04-23 10:44 | 42.14141 | 20.08523 | 33113 ft | 471 kts | 135° |
| 2026-04-23 10:44 | 42.09271 | 20.14435 | 33113 ft | 472 kts | 135° |
| 2026-04-23 10:45 | 42.04394 | 20.20340 | 33114 ft | 472 kts | 135° |
| 2026-04-23 10:45 | 41.99506 | 20.26236 | 33113 ft | 471 kts | 135° |
| 2026-04-23 10:46 | 41.94597 | 20.32164 | 33111 ft | 472 kts | 135° |
| 2026-04-23 10:46 | 41.89703 | 20.38056 | 33108 ft | 473 kts | 136° |
| 2026-04-23 10:47 | 41.84792 | 20.43934 | 33102 ft | 473 kts | 136° |
| 2026-04-23 10:47 | 41.79879 | 20.49818 | 33097 ft | 474 kts | 136° |
| 2026-04-23 10:48 | 41.75455 | 20.56306 | 33094 ft | 471 kts | 121° |
| 2026-04-23 10:48 | 41.71877 | 20.63648 | 33090 ft | 472 kts | 121° |
| 2026-04-23 10:49 | 41.68265 | 20.70993 | 33087 ft | 473 kts | 122° |
| 2026-04-23 10:49 | 41.64628 | 20.78359 | 33083 ft | 475 kts | 122° |
| 2026-04-23 10:50 | 41.60980 | 20.85740 | 33079 ft | 476 kts | 122° |
| 2026-04-23 10:50 | 41.57320 | 20.93128 | 33085 ft | 477 kts | 122° |
| 2026-04-23 10:51 | 41.53648 | 21.00530 | 33088 ft | 479 kts | 123° |
| 2026-04-23 10:51 | 41.49958 | 21.07940 | 33085 ft | 480 kts | 123° |
| 2026-04-23 10:52 | 41.46253 | 21.15365 | 33088 ft | 481 kts | 123° |
| 2026-04-23 10:52 | 41.42533 | 21.22796 | 33093 ft | 482 kts | 123° |
| 2026-04-23 10:53 | 41.38809 | 21.30227 | 33094 ft | 483 kts | 123° |
| 2026-04-23 10:53 | 41.35078 | 21.37665 | 33095 ft | 483 kts | 123° |
| 2026-04-23 10:54 | 41.31316 | 21.45143 | 33091 ft | 483 kts | 123° |
| 2026-04-23 10:54 | 41.27563 | 21.52571 | 33094 ft | 484 kts | 123° |
| 2026-04-23 10:55 | 41.23795 | 21.60006 | 33096 ft | 485 kts | 124° |
| 2026-04-23 10:55 | 41.20021 | 21.67440 | 33099 ft | 486 kts | 124° |
| 2026-04-23 10:56 | 41.16053 | 21.74688 | 33094 ft | 486 kts | 133° |
| 2026-04-23 10:56 | 41.11521 | 21.81355 | 33092 ft | 487 kts | 133° |
| 2026-04-23 10:57 | 41.06984 | 21.88034 | 33094 ft | 488 kts | 133° |
| 2026-04-23 10:57 | 41.02434 | 21.94721 | 33095 ft | 489 kts | 133° |
| 2026-04-23 10:58 | 40.97858 | 22.01414 | 33096 ft | 491 kts | 134° |
| 2026-04-23 10:58 | 40.93261 | 22.08105 | 33094 ft | 492 kts | 134° |
| 2026-04-23 10:59 | 40.88657 | 22.14814 | 33096 ft | 493 kts | 134° |
| 2026-04-23 10:59 | 40.84030 | 22.21527 | 33098 ft | 494 kts | 135° |
| 2026-04-23 11:00 | 40.79391 | 22.28244 | 33099 ft | 495 kts | 135° |
| 2026-04-23 11:00 | 40.74703 | 22.35017 | 33104 ft | 497 kts | 135° |
| 2026-04-23 11:01 | 40.70049 | 22.41756 | 33107 ft | 498 kts | 135° |
| 2026-04-23 11:01 | 40.65376 | 22.48489 | 33112 ft | 499 kts | 136° |
| 2026-04-23 11:02 | 40.60682 | 22.55222 | 33116 ft | 499 kts | 136° |
| 2026-04-23 11:02 | 40.55979 | 22.61950 | 33120 ft | 499 kts | 136° |
| 2026-04-23 11:03 | 40.51275 | 22.68671 | 33126 ft | 500 kts | 136° |
| 2026-04-23 11:03 | 40.46564 | 22.75395 | 33129 ft | 500 kts | 136° |
| 2026-04-23 11:04 | 40.41855 | 22.82107 | 33132 ft | 500 kts | 136° |
| 2026-04-23 11:04 | 40.37135 | 22.88816 | 33133 ft | 500 kts | 136° |
| 2026-04-23 11:05 | 40.32410 | 22.95514 | 33134 ft | 500 kts | 137° |
| 2026-04-23 11:05 | 40.27645 | 23.02249 | 33133 ft | 501 kts | 137° |
| 2026-04-23 11:06 | 40.21331 | 23.11149 | 33131 ft | 501 kts | 137° |
| 2026-04-23 11:07 | 40.16584 | 23.17828 | 33125 ft | 501 kts | 137° |
| 2026-04-23 11:07 | 40.11835 | 23.24494 | 33122 ft | 501 kts | 137° |
| 2026-04-23 11:08 | 40.07085 | 23.31154 | 33119 ft | 502 kts | 137° |
| 2026-04-23 11:08 | 40.02315 | 23.37813 | 33115 ft | 502 kts | 138° |
| 2026-04-23 11:09 | 39.97538 | 23.44462 | 33113 ft | 502 kts | 139° |
| 2026-04-23 11:09 | 39.92761 | 23.51113 | 33102 ft | 503 kts | 139° |
| 2026-04-23 11:10 | 39.87969 | 23.57772 | 33096 ft | 504 kts | 139° |
| 2026-04-23 11:10 | 39.83131 | 23.64480 | 33091 ft | 505 kts | 139° |
| 2026-04-23 11:11 | 39.78315 | 23.71134 | 33095 ft | 505 kts | 139° |
| 2026-04-23 11:11 | 39.73493 | 23.77779 | 33104 ft | 505 kts | 139° |
| 2026-04-23 11:12 | 39.68664 | 23.84422 | 33093 ft | 505 kts | 139° |
| 2026-04-23 11:12 | 39.63841 | 23.91048 | 33090 ft | 505 kts | 139° |
| 2026-04-23 11:13 | 39.59014 | 23.97668 | 33089 ft | 505 kts | 139° |
| 2026-04-23 11:13 | 39.54180 | 24.04275 | 33087 ft | 505 kts | 139° |
| 2026-04-23 11:14 | 39.49343 | 24.10866 | 33090 ft | 505 kts | 140° |
| 2026-04-23 11:14 | 39.44508 | 24.17452 | 33087 ft | 505 kts | 139° |
| 2026-04-23 11:15 | 39.39666 | 24.24032 | 33087 ft | 505 kts | 140° |
| 2026-04-23 11:15 | 39.34833 | 24.30581 | 33331 ft | 502 kts | 140° |
| 2026-04-23 11:15 | 39.32423 | 24.33838 | 33515 ft | 501 kts | 140° |
| 2026-04-23 11:16 | 39.30016 | 24.37088 | 33686 ft | 501 kts | 140° |
| 2026-04-23 11:16 | 39.27609 | 24.40336 | 33818 ft | 501 kts | 140° |
| 2026-04-23 11:16 | 39.25199 | 24.43588 | 33961 ft | 501 kts | 140° |
| 2026-04-23 11:16 | 39.22759 | 24.46881 | 34116 ft | 500 kts | 140° |
| 2026-04-23 11:17 | 39.20356 | 24.50117 | 34259 ft | 500 kts | 140° |
| 2026-04-23 11:17 | 39.17953 | 24.53348 | 34400 ft | 499 kts | 140° |
| 2026-04-23 11:17 | 39.15552 | 24.56573 | 34601 ft | 497 kts | 139° |
| 2026-04-23 11:17 | 39.13170 | 24.59775 | 34887 ft | 493 kts | 139° |
| 2026-04-23 11:18 | 39.10797 | 24.62963 | 35024 ft | 493 kts | 139° |
| 2026-04-23 11:18 | 39.06052 | 24.69315 | 35044 ft | 491 kts | 140° |
| 2026-04-23 11:19 | 39.01320 | 24.75631 | 35045 ft | 490 kts | 140° |
| 2026-04-23 11:19 | 38.96587 | 24.81936 | 35045 ft | 490 kts | 140° |
| 2026-04-23 11:20 | 38.91839 | 24.88237 | 35044 ft | 490 kts | 140° |
| 2026-04-23 11:20 | 38.87096 | 24.94528 | 35048 ft | 490 kts | 140° |
| 2026-04-23 11:21 | 38.82348 | 25.00824 | 35059 ft | 491 kts | 140° |
| 2026-04-23 11:21 | 38.77596 | 25.07120 | 35059 ft | 491 kts | 140° |
| 2026-04-23 11:22 | 38.72834 | 25.13405 | 35058 ft | 492 kts | 140° |
| 2026-04-23 11:22 | 38.68060 | 25.19691 | 35054 ft | 492 kts | 140° |
| 2026-04-23 11:23 | 38.63286 | 25.25964 | 35052 ft | 492 kts | 140° |
| 2026-04-23 11:23 | 38.58502 | 25.32226 | 35044 ft | 492 kts | 140° |
| 2026-04-23 11:24 | 38.53686 | 25.38519 | 35041 ft | 492 kts | 140° |
| 2026-04-23 11:24 | 38.48904 | 25.44766 | 35035 ft | 492 kts | 140° |
| 2026-04-23 11:25 | 38.44121 | 25.51009 | 35027 ft | 492 kts | 140° |
| 2026-04-23 11:25 | 38.39336 | 25.57240 | 35023 ft | 492 kts | 140° |
| 2026-04-23 11:26 | 38.34547 | 25.63459 | 35022 ft | 492 kts | 140° |
| 2026-04-23 11:26 | 38.29753 | 25.69675 | 35024 ft | 491 kts | 140° |
| 2026-04-23 11:27 | 38.24957 | 25.75872 | 35025 ft | 491 kts | 140° |
| 2026-04-23 11:27 | 38.20159 | 25.82054 | 35025 ft | 491 kts | 140° |
| 2026-04-23 11:28 | 38.15355 | 25.88230 | 35025 ft | 491 kts | 140° |
| 2026-04-23 11:28 | 38.10547 | 25.94403 | 35025 ft | 492 kts | 140° |
| 2026-04-23 11:29 | 38.05738 | 26.00571 | 35024 ft | 491 kts | 141° |
| 2026-04-23 11:29 | 38.00899 | 26.06766 | 35024 ft | 491 kts | 141° |
| 2026-04-23 11:30 | 37.96081 | 26.12924 | 35025 ft | 491 kts | 141° |
| 2026-04-23 11:30 | 37.91268 | 26.19063 | 35014 ft | 491 kts | 141° |
| 2026-04-23 11:31 | 37.86451 | 26.25198 | 35013 ft | 491 kts | 141° |
| 2026-04-23 11:31 | 37.81632 | 26.31322 | 35008 ft | 491 kts | 141° |
| 2026-04-23 11:32 | 37.76806 | 26.37428 | 35005 ft | 491 kts | 141° |
| 2026-04-23 11:32 | 37.71977 | 26.43540 | 34965 ft | 492 kts | 141° |
| 2026-04-23 11:33 | 37.67125 | 26.49664 | 34963 ft | 494 kts | 141° |
| 2026-04-23 11:33 | 37.62259 | 26.55794 | 34971 ft | 495 kts | 141° |
| 2026-04-23 11:34 | 37.57382 | 26.61930 | 34974 ft | 496 kts | 141° |
| 2026-04-23 11:34 | 37.53394 | 26.66936 | 34980 ft | 495 kts | 141° |
| 2026-04-23 11:35 | 37.48804 | 26.72684 | 34978 ft | 496 kts | 141° |
| 2026-04-23 11:35 | 37.43978 | 26.78710 | 34978 ft | 495 kts | 141° |
| 2026-04-23 11:36 | 37.39085 | 26.84818 | 34978 ft | 495 kts | 141° |
| 2026-04-23 11:36 | 37.34098 | 26.90859 | 34980 ft | 494 kts | 142° |
| 2026-04-23 11:37 | 37.29097 | 26.96769 | 34980 ft | 493 kts | 143° |
| 2026-04-23 11:37 | 37.24097 | 27.02682 | 34981 ft | 493 kts | 142° |
| 2026-04-23 11:38 | 37.19124 | 27.08604 | 34982 ft | 493 kts | 142° |
| 2026-04-23 11:38 | 37.14147 | 27.14523 | 34975 ft | 493 kts | 142° |
| 2026-04-23 11:39 | 37.10013 | 27.19428 | 34974 ft | 492 kts | 142° |
| 2026-04-23 11:39 | 37.05041 | 27.25318 | 34972 ft | 492 kts | 142° |
| 2026-04-23 11:40 | 37.00065 | 27.31195 | 34971 ft | 492 kts | 142° |
| 2026-04-23 11:40 | 36.95089 | 27.37055 | 34971 ft | 491 kts | 142° |
| 2026-04-23 11:41 | 36.90115 | 27.42914 | 34972 ft | 491 kts | 142° |
| 2026-04-23 11:41 | 36.85138 | 27.48756 | 34971 ft | 491 kts | 142° |
| 2026-04-23 11:42 | 36.80155 | 27.54590 | 34971 ft | 491 kts | 142° |
| 2026-04-23 11:42 | 36.75142 | 27.60452 | 34970 ft | 490 kts | 142° |
| 2026-04-23 11:43 | 36.70166 | 27.66268 | 34968 ft | 490 kts | 142° |
| 2026-04-23 11:43 | 36.65185 | 27.72078 | 34965 ft | 491 kts | 142° |
| 2026-04-23 11:44 | 36.60197 | 27.77885 | 34964 ft | 491 kts | 142° |
| 2026-04-23 11:44 | 36.55210 | 27.83684 | 34960 ft | 491 kts | 142° |
| 2026-04-23 11:45 | 36.50225 | 27.89466 | 34956 ft | 490 kts | 142° |
| 2026-04-23 11:45 | 36.45234 | 27.95237 | 34953 ft | 490 kts | 142° |
| 2026-04-23 11:46 | 36.40247 | 28.00998 | 34957 ft | 490 kts | 142° |
| 2026-04-23 11:46 | 36.35511 | 28.07097 | 34957 ft | 497 kts | 130° |
| 2026-04-23 11:47 | 36.32309 | 28.14746 | 34952 ft | 505 kts | 110° |
| 2026-04-23 11:47 | 36.30206 | 28.23068 | 34954 ft | 506 kts | 110° |
| 2026-04-23 11:48 | 36.28078 | 28.31382 | 34954 ft | 506 kts | 110° |
| 2026-04-23 11:48 | 36.25940 | 28.39661 | 34955 ft | 506 kts | 111° |
| 2026-04-23 11:49 | 36.23785 | 28.47997 | 34950 ft | 507 kts | 110° |
| 2026-04-23 11:49 | 36.21621 | 28.56363 | 34958 ft | 506 kts | 111° |
| 2026-04-23 11:50 | 36.19461 | 28.64663 | 34963 ft | 506 kts | 111° |
| 2026-04-23 11:50 | 36.17294 | 28.72950 | 34965 ft | 506 kts | 111° |
| 2026-04-23 11:51 | 36.15134 | 28.81205 | 34973 ft | 503 kts | 111° |
| 2026-04-23 11:51 | 36.12981 | 28.89418 | 34984 ft | 501 kts | 111° |
| 2026-04-23 11:52 | 36.10820 | 28.97590 | 34984 ft | 499 kts | 111° |
| 2026-04-23 11:52 | 36.08661 | 29.05743 | 34986 ft | 498 kts | 111° |
| 2026-04-23 11:53 | 36.06507 | 29.13870 | 34983 ft | 497 kts | 111° |
| 2026-04-23 11:53 | 36.04352 | 29.21977 | 34981 ft | 496 kts | 111° |
| 2026-04-23 11:54 | 36.02194 | 29.30073 | 34981 ft | 496 kts | 111° |
| 2026-04-23 11:54 | 36.00030 | 29.38146 | 34983 ft | 495 kts | 112° |
| 2026-04-23 11:55 | 35.97862 | 29.46206 | 34981 ft | 494 kts | 111° |
| 2026-04-23 11:55 | 35.95692 | 29.54263 | 34981 ft | 494 kts | 111° |
| 2026-04-23 11:56 | 35.93525 | 29.62295 | 34983 ft | 493 kts | 111° |
| 2026-04-23 11:56 | 35.91361 | 29.70377 | 34982 ft | 492 kts | 111° |
| 2026-04-23 11:57 | 35.89209 | 29.78388 | 34982 ft | 492 kts | 112° |
| 2026-04-23 11:57 | 35.87041 | 29.86381 | 34982 ft | 491 kts | 112° |
| 2026-04-23 11:58 | 35.84864 | 29.94358 | 34979 ft | 491 kts | 112° |
| 2026-04-23 11:58 | 35.82690 | 30.02347 | 34980 ft | 492 kts | 111° |
| 2026-04-23 11:59 | 35.80649 | 30.10389 | 34981 ft | 492 kts | 110° |
| 2026-04-23 11:59 | 35.78676 | 30.18456 | 34978 ft | 492 kts | 110° |
| 2026-04-23 12:00 | 35.76672 | 30.26504 | 34977 ft | 492 kts | 110° |
| 2026-04-23 12:00 | 35.74630 | 30.34535 | 34980 ft | 491 kts | 111° |
| 2026-04-23 12:01 | 35.72574 | 30.42561 | 34980 ft | 492 kts | 110° |
| 2026-04-23 12:01 | 35.70519 | 30.50589 | 34979 ft | 492 kts | 110° |
| 2026-04-23 12:02 | 35.68474 | 30.58613 | 34971 ft | 492 kts | 110° |
| 2026-04-23 12:02 | 35.66401 | 30.66681 | 34915 ft | 497 kts | 110° |
| 2026-04-23 12:03 | 35.64303 | 30.74801 | 34915 ft | 500 kts | 110° |
| 2026-04-23 12:03 | 35.62135 | 30.82943 | 34918 ft | 501 kts | 115° |
| 2026-04-23 12:03 | 35.60646 | 30.86797 | 34779 ft | 497 kts | 124° |
| 2026-04-23 12:04 | 35.58782 | 30.90417 | 34532 ft | 494 kts | 127° |
| 2026-04-23 12:04 | 35.56906 | 30.93944 | 34282 ft | 494 kts | 128° |
| 2026-04-23 12:04 | 35.55017 | 30.97471 | 34026 ft | 493 kts | 128° |
| 2026-04-23 12:04 | 35.53131 | 31.00984 | 33785 ft | 493 kts | 128° |
| 2026-04-23 12:05 | 35.51242 | 31.04491 | 33540 ft | 493 kts | 128° |
| 2026-04-23 12:05 | 35.49353 | 31.07998 | 33286 ft | 492 kts | 128° |
| 2026-04-23 12:05 | 35.47464 | 31.11507 | 33034 ft | 492 kts | 127° |
| 2026-04-23 12:05 | 35.45578 | 31.15008 | 32752 ft | 492 kts | 127° |
| 2026-04-23 12:06 | 35.43690 | 31.18515 | 31921 ft | 494 kts | 127° |
| 2026-04-23 12:06 | 35.41798 | 31.22036 | 31089 ft | 495 kts | 127° |
| 2026-04-23 12:06 | 35.37998 | 31.29094 | 29280 ft | 497 kts | 127° |
| 2026-04-23 12:07 | 35.36089 | 31.32627 | 28321 ft | 498 kts | 127° |
| 2026-04-23 12:07 | 35.34177 | 31.36160 | 27315 ft | 499 kts | 127° |
| 2026-04-23 12:07 | 35.32258 | 31.39702 | 26281 ft | 499 kts | 127° |
| 2026-04-23 12:07 | 35.30337 | 31.43245 | 25173 ft | 500 kts | 127° |
| 2026-04-23 12:08 | 35.28417 | 31.46790 | 24130 ft | 499 kts | 127° |
| 2026-04-23 12:08 | 35.26506 | 31.50318 | 23227 ft | 494 kts | 127° |
| 2026-04-23 12:08 | 35.24620 | 31.53793 | 22440 ft | 488 kts | 127° |
| 2026-04-23 12:08 | 35.22749 | 31.57237 | 21641 ft | 482 kts | 127° |
| 2026-04-23 12:09 | 35.20902 | 31.60626 | 20839 ft | 477 kts | 127° |
| 2026-04-23 12:09 | 35.19072 | 31.63980 | 20044 ft | 471 kts | 127° |
| 2026-04-23 12:09 | 35.17266 | 31.67289 | 19274 ft | 465 kts | 127° |
| 2026-04-23 12:09 | 35.15482 | 31.70554 | 18510 ft | 459 kts | 127° |
| 2026-04-23 12:10 | 35.13720 | 31.73772 | 17754 ft | 452 kts | 127° |
| 2026-04-23 12:10 | 35.11983 | 31.76938 | 17007 ft | 446 kts | 127° |
| 2026-04-23 12:10 | 35.10266 | 31.80066 | 16269 ft | 440 kts | 127° |
| 2026-04-23 12:10 | 35.08576 | 31.83145 | 15545 ft | 434 kts | 127° |
| 2026-04-23 12:11 | 35.06904 | 31.86190 | 14840 ft | 428 kts | 127° |
| 2026-04-23 12:11 | 35.05259 | 31.89191 | 14171 ft | 423 kts | 127° |
| 2026-04-23 12:11 | 35.03636 | 31.92151 | 13535 ft | 417 kts | 127° |
| 2026-04-23 12:11 | 35.02034 | 31.95069 | 12910 ft | 410 kts | 127° |
| 2026-04-23 12:12 | 35.00456 | 31.97933 | 12304 ft | 404 kts | 127° |
| 2026-04-23 12:12 | 34.99405 | 31.99838 | 11908 ft | 399 kts | 127° |
| 2026-04-23 12:12 | 34.97867 | 32.02622 | 11323 ft | 392 kts | 127° |
| 2026-04-23 12:12 | 34.96373 | 32.05329 | 11115 ft | 375 kts | 126° |
| 2026-04-23 12:13 | 34.94953 | 32.07904 | 10971 ft | 358 kts | 126° |
| 2026-04-23 12:13 | 34.93598 | 32.10360 | 10867 ft | 341 kts | 126° |
| 2026-04-23 12:13 | 34.92271 | 32.12678 | 10750 ft | 325 kts | 131° |
| 2026-04-23 12:13 | 34.90858 | 32.14737 | 10603 ft | 311 kts | 133° |
| 2026-04-23 12:14 | 34.89480 | 32.16734 | 10337 ft | 304 kts | 133° |
| 2026-04-23 12:14 | 34.88124 | 32.18698 | 10092 ft | 302 kts | 133° |
| 2026-04-23 12:14 | 34.86776 | 32.20652 | 9888 ft | 300 kts | 132° |
| 2026-04-23 12:14 | 34.85432 | 32.22601 | 9762 ft | 300 kts | 132° |
| 2026-04-23 12:15 | 34.84088 | 32.24547 | 9638 ft | 300 kts | 132° |
| 2026-04-23 12:15 | 34.82745 | 32.26492 | 9435 ft | 300 kts | 132° |
| 2026-04-23 12:15 | 34.81406 | 32.28431 | 9032 ft | 299 kts | 132° |
| 2026-04-23 12:15 | 34.80070 | 32.30365 | 8595 ft | 298 kts | 132° |
| 2026-04-23 12:16 | 34.78736 | 32.32291 | 8183 ft | 297 kts | 131° |
| 2026-04-23 12:16 | 34.77413 | 32.34204 | 7784 ft | 295 kts | 131° |
| 2026-04-23 12:16 | 34.76103 | 32.36102 | 7397 ft | 292 kts | 131° |
| 2026-04-23 12:16 | 34.74799 | 32.37990 | 7028 ft | 289 kts | 131° |
| 2026-04-23 12:17 | 34.73483 | 32.39893 | 6591 ft | 289 kts | 131° |
| 2026-04-23 12:17 | 34.72203 | 32.41742 | 6266 ft | 284 kts | 131° |
| 2026-04-23 12:17 | 34.70931 | 32.43576 | 5831 ft | 284 kts | 131° |
| 2026-04-23 12:17 | 34.69640 | 32.45435 | 5250 ft | 290 kts | 131° |
| 2026-04-23 12:18 | 34.68342 | 32.47304 | 4817 ft | 289 kts | 131° |
| 2026-04-23 12:18 | 34.67045 | 32.49169 | 4388 ft | 288 kts | 131° |
| 2026-04-23 12:18 | 34.65756 | 32.51022 | 3973 ft | 287 kts | 131° |
| 2026-04-23 12:18 | 34.64473 | 32.52865 | 3555 ft | 284 kts | 131° |
| 2026-04-23 12:19 | 34.63213 | 32.54679 | 3353 ft | 274 kts | 131° |
| 2026-04-23 12:19 | 34.62018 | 32.56400 | 3281 ft | 260 kts | 131° |
| 2026-04-23 12:19 | 34.60876 | 32.58035 | 3182 ft | 247 kts | 131° |
| 2026-04-23 12:19 | 34.59792 | 32.59581 | 3078 ft | 234 kts | 131° |
| 2026-04-23 12:20 | 34.58804 | 32.61083 | 2964 ft | 225 kts | 122° |
| 2026-04-23 12:20 | 34.58240 | 32.62816 | 2905 ft | 216 kts | 102° |
| 2026-04-23 12:20 | 34.58195 | 32.64551 | 2826 ft | 198 kts | 82° |
| 2026-04-23 12:20 | 34.58570 | 32.66085 | 2752 ft | 182 kts | 64° |
| 2026-04-23 12:21 | 34.59241 | 32.67331 | 2690 ft | 175 kts | 47° |
| 2026-04-23 12:21 | 34.60159 | 32.68286 | 2665 ft | 175 kts | 30° |
| 2026-04-23 12:21 | 34.61256 | 32.68892 | 2607 ft | 173 kts | 15° |
| 2026-04-23 12:21 | 34.62433 | 32.69116 | 2551 ft | 171 kts | 359° |
| 2026-04-23 12:22 | 34.63603 | 32.68946 | 2477 ft | 168 kts | 343° |
| 2026-04-23 12:22 | 34.64678 | 32.68407 | 2411 ft | 167 kts | 327° |
| 2026-04-23 12:22 | 34.65590 | 32.67548 | 2349 ft | 166 kts | 312° |
| 2026-04-23 12:22 | 34.66245 | 32.66421 | 2301 ft | 162 kts | 294° |
| 2026-04-23 12:23 | 34.66674 | 32.65206 | 2239 ft | 152 kts | 290° |
| 2026-04-23 12:23 | 34.67051 | 32.64042 | 2203 ft | 146 kts | 290° |
| 2026-04-23 12:23 | 34.67409 | 32.62897 | 2168 ft | 144 kts | 290° |
| 2026-04-23 12:23 | 34.67762 | 32.61754 | 2048 ft | 144 kts | 290° |
| 2026-04-23 12:24 | 34.68111 | 32.60619 | 1875 ft | 143 kts | 291° |
| 2026-04-23 12:24 | 34.68456 | 32.59494 | 1699 ft | 141 kts | 291° |
| 2026-04-23 12:24 | 34.68803 | 32.58362 | 1511 ft | 141 kts | 291° |
| 2026-04-23 12:24 | 34.69143 | 32.57246 | 1329 ft | 140 kts | 291° |
| 2026-04-23 12:25 | 34.69480 | 32.56143 | 1141 ft | 139 kts | 291° |
| 2026-04-23 12:25 | 34.69817 | 32.55041 | 960 ft | 139 kts | 291° |
| 2026-04-23 12:25 | 34.70153 | 32.53940 | 776 ft | 139 kts | 291° |
| 2026-04-23 12:25 | 34.70488 | 32.52839 | 589 ft | 139 kts | 291° |
| 2026-04-23 12:26 | 34.70826 | 32.51732 | 405 ft | 141 kts | 291° |
| 2026-04-23 12:26 | 34.71169 | 32.50608 | 207 ft | 142 kts | 292° |
| 2026-04-23 12:26 | 34.71510 | 32.49490 | 62 ft | 141 kts | 291° |
| 2026-04-23 12:26 | 34.71831 | 32.48440 | 44 ft | 112 kts | 290° |
| 2026-04-23 12:27 | 34.71996 | 32.47896 | 46 ft | 31 kts | 290° |
| 2026-04-23 12:27 | 34.72070 | 32.47658 | 47 ft | 30 kts | 291° |
| 2026-04-23 12:27 | 34.72118 | 32.47533 | 46 ft | 4 kts | 288° |
| 2026-04-23 12:27 | 34.72106 | 32.47532 | 46 ft | 5 kts | 163° |
| 2026-04-23 12:28 | 34.72075 | 32.47610 | 46 ft | 16 kts | 106° |
| 2026-04-23 12:28 | 34.72035 | 32.47773 | 47 ft | 22 kts | 109° |
| 2026-04-23 12:28 | 34.71979 | 32.47958 | 45 ft | 24 kts | 110° |
| 2026-04-23 12:28 | 34.71920 | 32.48152 | 46 ft | 25 kts | 111° |
| 2026-04-23 12:29 | 34.71861 | 32.48340 | 46 ft | 19 kts | 110° |
| 2026-04-23 12:29 | 34.71780 | 32.48407 | 46 ft | 15 kts | 193° |
| 2026-04-23 12:29 | 34.71674 | 32.48362 | 46 ft | 17 kts | 199° |
| 2026-04-23 12:29 | 34.71559 | 32.48310 | 46 ft | 18 kts | 201° |
| 2026-04-23 12:30 | 34.71443 | 32.48263 | 46 ft | 16 kts | 184° |
| 2026-04-23 12:30 | 34.71379 | 32.48365 | 46 ft | 17 kts | 110° |
| 2026-04-23 12:30 | 34.71346 | 32.48496 | 46 ft | 15 kts | 88° |
| 2026-04-23 12:30 | 34.71385 | 32.48615 | 43 ft | 16 kts | 65° |
| 2026-04-23 12:31 | 34.71433 | 32.48740 | 46 ft | 16 kts | 65° |
| 2026-04-23 12:31 | 34.71434 | 32.48821 | 44 ft | 7 kts | 147° |
| 2026-04-23 12:31 | 34.71385 | 32.48837 | 46 ft | 6 kts | 158° |
| 2026-04-23 12:31 | 34.71377 | 32.48841 | 46 ft | 0 kts | 157° |